sensor_id;sensor_type;location;lat;lon;timestamp;P1;durP1;ratioP1;P2;durP2;ratioP2
23155;SDS011;11746;50.876;4.246;2022-09-02T00:01:15;6.28;;;1.85;;
23155;SDS011;11746;50.876;4.246;2022-09-02T00:03:46;4.63;;;1.88;;
23155;SDS011;11746;50.876;4.246;2022-09-02T00:06:13;4.85;;;1.98;;
23155;SDS011;11746;50.876;4.246;2022-09-02T00:08:42;4.50;;;1.75;;
23155;SDS011;11746;50.876;4.246;2022-09-02T00:11:12;4.25;;;1.83;;
23155;SDS011;11746;50.876;4.246;2022-09-02T00:13:44;6.45;;;1.80;;
23155;SDS011;11746;50.876;4.246;2022-09-02T00:16:11;4.78;;;2.20;;
23155;SDS011;11746;50.876;4.246;2022-09-02T00:18:39;4.93;;;2.00;;
23155;SDS011;11746;50.876;4.246;2022-09-02T00:21:06;3.47;;;1.85;;
23155;SDS011;11746;50.876;4.246;2022-09-02T00:23:32;7.07;;;2.20;;
23155;SDS011;11746;50.876;4.246;2022-09-02T00:25:58;4.93;;;2.00;;
23155;SDS011;11746;50.876;4.246;2022-09-02T00:28:25;4.28;;;1.83;;
23155;SDS011;11746;50.876;4.246;2022-09-02T00:30:52;6.30;;;2.15;;
23155;SDS011;11746;50.876;4.246;2022-09-02T00:33:17;5.25;;;2.03;;
23155;SDS011;11746;50.876;4.246;2022-09-02T00:35:43;4.72;;;2.42;;
23155;SDS011;11746;50.876;4.246;2022-09-02T00:38:10;5.75;;;2.47;;
23155;SDS011;11746;50.876;4.246;2022-09-02T00:40:37;6.97;;;2.10;;
23155;SDS011;11746;50.876;4.246;2022-09-02T00:43:07;3.70;;;1.90;;
23155;SDS011;11746;50.876;4.246;2022-09-02T00:45:34;4.65;;;2.10;;
23155;SDS011;11746;50.876;4.246;2022-09-02T00:48:03;3.63;;;1.83;;
23155;SDS011;11746;50.876;4.246;2022-09-02T00:50:32;4.38;;;1.60;;
23155;SDS011;11746;50.876;4.246;2022-09-02T00:53:03;4.18;;;2.08;;
23155;SDS011;11746;50.876;4.246;2022-09-02T00:55:32;3.90;;;1.80;;
23155;SDS011;11746;50.876;4.246;2022-09-02T00:58:07;2.85;;;1.67;;
23155;SDS011;11746;50.876;4.246;2022-09-02T01:00:39;5.82;;;2.08;;
23155;SDS011;11746;50.876;4.246;2022-09-02T01:03:09;5.93;;;2.03;;
23155;SDS011;11746;50.876;4.246;2022-09-02T01:05:41;6.07;;;2.08;;
23155;SDS011;11746;50.876;4.246;2022-09-02T01:08:11;6.05;;;1.75;;
23155;SDS011;11746;50.876;4.246;2022-09-02T01:10:41;3.22;;;1.88;;
23155;SDS011;11746;50.876;4.246;2022-09-02T01:13:10;4.80;;;1.80;;
23155;SDS011;11746;50.876;4.246;2022-09-02T01:15:45;5.18;;;1.95;;
23155;SDS011;11746;50.876;4.246;2022-09-02T01:18:20;5.15;;;2.10;;
23155;SDS011;11746;50.876;4.246;2022-09-02T01:20:49;4.57;;;2.10;;
23155;SDS011;11746;50.876;4.246;2022-09-02T01:23:16;5.80;;;2.20;;
23155;SDS011;11746;50.876;4.246;2022-09-02T01:25:43;7.63;;;1.90;;
23155;SDS011;11746;50.876;4.246;2022-09-02T01:28:11;4.97;;;1.98;;
23155;SDS011;11746;50.876;4.246;2022-09-02T01:30:41;4.57;;;1.90;;
23155;SDS011;11746;50.876;4.246;2022-09-02T01:33:11;2.28;;;1.70;;
23155;SDS011;11746;50.876;4.246;2022-09-02T01:35:38;7.38;;;2.00;;
23155;SDS011;11746;50.876;4.246;2022-09-02T01:38:04;6.13;;;1.83;;
23155;SDS011;11746;50.876;4.246;2022-09-02T01:40:32;5.78;;;1.92;;
23155;SDS011;11746;50.876;4.246;2022-09-02T01:43:00;3.65;;;1.88;;
23155;SDS011;11746;50.876;4.246;2022-09-02T01:45:37;4.45;;;1.70;;
23155;SDS011;11746;50.876;4.246;2022-09-02T01:48:05;5.00;;;1.77;;
23155;SDS011;11746;50.876;4.246;2022-09-02T01:50:32;2.90;;;1.83;;
23155;SDS011;11746;50.876;4.246;2022-09-02T01:53:00;6.50;;;1.80;;
23155;SDS011;11746;50.876;4.246;2022-09-02T01:55:28;2.80;;;1.60;;
23155;SDS011;11746;50.876;4.246;2022-09-02T01:57:55;3.80;;;2.00;;
23155;SDS011;11746;50.876;4.246;2022-09-02T02:00:22;4.07;;;1.98;;
23155;SDS011;11746;50.876;4.246;2022-09-02T02:02:49;3.30;;;1.90;;
23155;SDS011;11746;50.876;4.246;2022-09-02T02:05:15;4.32;;;1.80;;
23155;SDS011;11746;50.876;4.246;2022-09-02T02:07:42;7.45;;;2.15;;
23155;SDS011;11746;50.876;4.246;2022-09-02T02:10:08;2.75;;;1.90;;
23155;SDS011;11746;50.876;4.246;2022-09-02T02:12:36;4.32;;;2.10;;
23155;SDS011;11746;50.876;4.246;2022-09-02T02:15:05;3.95;;;2.10;;
23155;SDS011;11746;50.876;4.246;2022-09-02T02:17:33;6.13;;;1.90;;
23155;SDS011;11746;50.876;4.246;2022-09-02T02:19:59;2.80;;;2.15;;
23155;SDS011;11746;50.876;4.246;2022-09-02T02:22:26;8.07;;;2.17;;
23155;SDS011;11746;50.876;4.246;2022-09-02T02:24:53;5.50;;;2.30;;
23155;SDS011;11746;50.876;4.246;2022-09-02T02:27:19;4.07;;;2.10;;
23155;SDS011;11746;50.876;4.246;2022-09-02T02:29:46;4.70;;;2.33;;
23155;SDS011;11746;50.876;4.246;2022-09-02T02:32:12;7.47;;;2.10;;
23155;SDS011;11746;50.876;4.246;2022-09-02T02:34:38;6.97;;;2.40;;
23155;SDS011;11746;50.876;4.246;2022-09-02T02:37:05;3.90;;;1.85;;
23155;SDS011;11746;50.876;4.246;2022-09-02T02:39:32;4.10;;;1.80;;
23155;SDS011;11746;50.876;4.246;2022-09-02T02:41:58;5.00;;;1.92;;
23155;SDS011;11746;50.876;4.246;2022-09-02T02:44:23;4.30;;;1.85;;
23155;SDS011;11746;50.876;4.246;2022-09-02T02:46:50;4.38;;;2.05;;
23155;SDS011;11746;50.876;4.246;2022-09-02T02:49:17;3.85;;;1.73;;
23155;SDS011;11746;50.876;4.246;2022-09-02T02:51:43;4.20;;;2.17;;
23155;SDS011;11746;50.876;4.246;2022-09-02T02:54:09;4.90;;;1.90;;
23155;SDS011;11746;50.876;4.246;2022-09-02T02:56:38;4.28;;;2.20;;
23155;SDS011;11746;50.876;4.246;2022-09-02T02:59:04;4.28;;;2.05;;
23155;SDS011;11746;50.876;4.246;2022-09-02T03:01:30;4.38;;;2.10;;
23155;SDS011;11746;50.876;4.246;2022-09-02T03:03:58;4.65;;;2.20;;
23155;SDS011;11746;50.876;4.246;2022-09-02T03:06:25;8.80;;;2.67;;
23155;SDS011;11746;50.876;4.246;2022-09-02T03:08:51;4.70;;;2.08;;
23155;SDS011;11746;50.876;4.246;2022-09-02T03:11:17;7.55;;;2.33;;
23155;SDS011;11746;50.876;4.246;2022-09-02T03:13:47;7.80;;;2.35;;
23155;SDS011;11746;50.876;4.246;2022-09-02T03:16:16;4.68;;;2.33;;
23155;SDS011;11746;50.876;4.246;2022-09-02T03:18:44;6.75;;;2.50;;
23155;SDS011;11746;50.876;4.246;2022-09-02T03:21:11;4.53;;;2.30;;
23155;SDS011;11746;50.876;4.246;2022-09-02T03:23:40;3.83;;;1.80;;
23155;SDS011;11746;50.876;4.246;2022-09-02T03:26:08;6.55;;;2.80;;
23155;SDS011;11746;50.876;4.246;2022-09-02T03:28:39;4.93;;;2.33;;
23155;SDS011;11746;50.876;4.246;2022-09-02T03:31:06;6.88;;;3.38;;
23155;SDS011;11746;50.876;4.246;2022-09-02T03:33:38;4.10;;;2.38;;
23155;SDS011;11746;50.876;4.246;2022-09-02T03:36:04;5.80;;;2.40;;
23155;SDS011;11746;50.876;4.246;2022-09-02T03:38:31;5.47;;;2.47;;
23155;SDS011;11746;50.876;4.246;2022-09-02T03:40:59;8.18;;;2.30;;
23155;SDS011;11746;50.876;4.246;2022-09-02T03:43:25;3.65;;;2.28;;
23155;SDS011;11746;50.876;4.246;2022-09-02T03:45:52;4.32;;;1.88;;
23155;SDS011;11746;50.876;4.246;2022-09-02T03:48:18;4.68;;;2.40;;
23155;SDS011;11746;50.876;4.246;2022-09-02T03:50:45;8.65;;;2.70;;
23155;SDS011;11746;50.876;4.246;2022-09-02T03:53:11;7.32;;;2.72;;
23155;SDS011;11746;50.876;4.246;2022-09-02T03:55:37;6.40;;;2.33;;
23155;SDS011;11746;50.876;4.246;2022-09-02T03:58:05;6.78;;;2.45;;
23155;SDS011;11746;50.876;4.246;2022-09-02T04:00:31;6.55;;;2.40;;
23155;SDS011;11746;50.876;4.246;2022-09-02T04:02:59;4.70;;;2.20;;
23155;SDS011;11746;50.876;4.246;2022-09-02T04:05:26;6.13;;;2.72;;
23155;SDS011;11746;50.876;4.246;2022-09-02T04:07:53;3.83;;;2.38;;
23155;SDS011;11746;50.876;4.246;2022-09-02T04:10:21;6.80;;;2.45;;
23155;SDS011;11746;50.876;4.246;2022-09-02T04:12:48;4.32;;;2.10;;
23155;SDS011;11746;50.876;4.246;2022-09-02T04:15:15;5.35;;;2.65;;
23155;SDS011;11746;50.876;4.246;2022-09-02T04:17:42;9.20;;;2.40;;
23155;SDS011;11746;50.876;4.246;2022-09-02T04:20:10;6.20;;;2.25;;
23155;SDS011;11746;50.876;4.246;2022-09-02T04:22:38;8.20;;;2.67;;
23155;SDS011;11746;50.876;4.246;2022-09-02T04:25:05;12.35;;;3.13;;
23155;SDS011;11746;50.876;4.246;2022-09-02T04:27:32;6.35;;;2.75;;
23155;SDS011;11746;50.876;4.246;2022-09-02T04:29:59;5.97;;;2.42;;
23155;SDS011;11746;50.876;4.246;2022-09-02T04:32:25;8.93;;;2.95;;
23155;SDS011;11746;50.876;4.246;2022-09-02T04:34:51;6.78;;;2.85;;
23155;SDS011;11746;50.876;4.246;2022-09-02T04:37:17;5.72;;;2.72;;
23155;SDS011;11746;50.876;4.246;2022-09-02T04:39:44;5.20;;;2.60;;
23155;SDS011;11746;50.876;4.246;2022-09-02T04:42:09;7.88;;;2.50;;
23155;SDS011;11746;50.876;4.246;2022-09-02T04:44:36;5.72;;;2.70;;
23155;SDS011;11746;50.876;4.246;2022-09-02T04:47:02;8.30;;;3.00;;
23155;SDS011;11746;50.876;4.246;2022-09-02T04:49:28;9.63;;;3.47;;
23155;SDS011;11746;50.876;4.246;2022-09-02T04:51:56;10.57;;;2.90;;
23155;SDS011;11746;50.876;4.246;2022-09-02T04:54:22;7.05;;;2.90;;
23155;SDS011;11746;50.876;4.246;2022-09-02T04:56:49;8.07;;;2.97;;
23155;SDS011;11746;50.876;4.246;2022-09-02T04:59:15;8.07;;;3.00;;
23155;SDS011;11746;50.876;4.246;2022-09-02T05:01:42;8.23;;;3.10;;
23155;SDS011;11746;50.876;4.246;2022-09-02T05:04:08;7.55;;;3.47;;
23155;SDS011;11746;50.876;4.246;2022-09-02T05:06:35;5.95;;;3.00;;
23155;SDS011;11746;50.876;4.246;2022-09-02T05:09:03;6.05;;;3.50;;
23155;SDS011;11746;50.876;4.246;2022-09-02T05:11:32;6.63;;;2.88;;
23155;SDS011;11746;50.876;4.246;2022-09-02T05:14:02;6.63;;;3.05;;
23155;SDS011;11746;50.876;4.246;2022-09-02T05:16:31;7.15;;;3.40;;
23155;SDS011;11746;50.876;4.246;2022-09-02T05:19:01;9.02;;;3.45;;
23155;SDS011;11746;50.876;4.246;2022-09-02T05:21:29;8.85;;;2.92;;
23155;SDS011;11746;50.876;4.246;2022-09-02T05:23:56;6.57;;;3.10;;
23155;SDS011;11746;50.876;4.246;2022-09-02T05:26:23;6.97;;;3.30;;
23155;SDS011;11746;50.876;4.246;2022-09-02T05:28:49;8.18;;;3.63;;
23155;SDS011;11746;50.876;4.246;2022-09-02T05:31:17;15.07;;;3.42;;
23155;SDS011;11746;50.876;4.246;2022-09-02T05:33:45;11.20;;;3.47;;
23155;SDS011;11746;50.876;4.246;2022-09-02T05:36:12;9.80;;;3.40;;
23155;SDS011;11746;50.876;4.246;2022-09-02T05:38:40;8.88;;;3.17;;
23155;SDS011;11746;50.876;4.246;2022-09-02T05:41:08;8.65;;;3.33;;
23155;SDS011;11746;50.876;4.246;2022-09-02T05:43:37;10.07;;;3.60;;
23155;SDS011;11746;50.876;4.246;2022-09-02T05:46:04;8.27;;;2.80;;
23155;SDS011;11746;50.876;4.246;2022-09-02T05:48:32;6.00;;;3.80;;
23155;SDS011;11746;50.876;4.246;2022-09-02T05:51:17;12.02;;;3.95;;
23155;SDS011;11746;50.876;4.246;2022-09-02T05:53:44;7.82;;;3.80;;
23155;SDS011;11746;50.876;4.246;2022-09-02T05:56:09;11.05;;;4.05;;
23155;SDS011;11746;50.876;4.246;2022-09-02T05:58:36;7.85;;;3.45;;
23155;SDS011;11746;50.876;4.246;2022-09-02T06:01:07;10.43;;;4.00;;
23155;SDS011;11746;50.876;4.246;2022-09-02T06:03:34;10.52;;;3.97;;
23155;SDS011;11746;50.876;4.246;2022-09-02T06:06:02;9.82;;;3.65;;
23155;SDS011;11746;50.876;4.246;2022-09-02T06:08:28;8.75;;;3.40;;
23155;SDS011;11746;50.876;4.246;2022-09-02T06:10:55;7.22;;;3.50;;
23155;SDS011;11746;50.876;4.246;2022-09-02T06:13:21;7.07;;;3.40;;
23155;SDS011;11746;50.876;4.246;2022-09-02T06:15:48;9.93;;;3.70;;
23155;SDS011;11746;50.876;4.246;2022-09-02T06:18:16;11.88;;;3.72;;
23155;SDS011;11746;50.876;4.246;2022-09-02T06:20:43;5.28;;;3.47;;
23155;SDS011;11746;50.876;4.246;2022-09-02T06:23:10;6.35;;;3.35;;
23155;SDS011;11746;50.876;4.246;2022-09-02T06:25:38;5.90;;;3.33;;
23155;SDS011;11746;50.876;4.246;2022-09-02T06:28:05;6.78;;;3.72;;
23155;SDS011;11746;50.876;4.246;2022-09-02T06:30:32;7.35;;;3.75;;
23155;SDS011;11746;50.876;4.246;2022-09-02T06:32:59;6.97;;;3.90;;
23155;SDS011;11746;50.876;4.246;2022-09-02T06:35:27;9.88;;;3.90;;
23155;SDS011;11746;50.876;4.246;2022-09-02T06:37:56;8.68;;;3.88;;
23155;SDS011;11746;50.876;4.246;2022-09-02T06:40:23;15.23;;;3.75;;
23155;SDS011;11746;50.876;4.246;2022-09-02T06:42:50;7.78;;;3.63;;
23155;SDS011;11746;50.876;4.246;2022-09-02T06:45:18;14.43;;;3.85;;
23155;SDS011;11746;50.876;4.246;2022-09-02T06:47:45;10.18;;;3.42;;
23155;SDS011;11746;50.876;4.246;2022-09-02T06:50:12;5.90;;;3.78;;
23155;SDS011;11746;50.876;4.246;2022-09-02T06:52:38;8.48;;;3.85;;
23155;SDS011;11746;50.876;4.246;2022-09-02T06:55:05;12.20;;;4.15;;
23155;SDS011;11746;50.876;4.246;2022-09-02T06:57:31;9.90;;;3.65;;
23155;SDS011;11746;50.876;4.246;2022-09-02T06:59:57;9.48;;;3.38;;
23155;SDS011;11746;50.876;4.246;2022-09-02T07:02:23;9.02;;;3.50;;
23155;SDS011;11746;50.876;4.246;2022-09-02T07:04:49;7.43;;;3.38;;
23155;SDS011;11746;50.876;4.246;2022-09-02T07:07:34;9.52;;;3.58;;
23155;SDS011;11746;50.876;4.246;2022-09-02T07:10:05;8.75;;;3.58;;
23155;SDS011;11746;50.876;4.246;2022-09-02T07:12:34;7.18;;;3.20;;
23155;SDS011;11746;50.876;4.246;2022-09-02T07:15:05;11.55;;;3.50;;
23155;SDS011;11746;50.876;4.246;2022-09-02T07:17:32;10.02;;;4.45;;
23155;SDS011;11746;50.876;4.246;2022-09-02T07:19:58;7.78;;;3.53;;
23155;SDS011;11746;50.876;4.246;2022-09-02T07:22:26;7.72;;;3.22;;
23155;SDS011;11746;50.876;4.246;2022-09-02T07:24:52;12.30;;;3.50;;
23155;SDS011;11746;50.876;4.246;2022-09-02T07:27:18;10.35;;;3.70;;
23155;SDS011;11746;50.876;4.246;2022-09-02T07:29:45;6.03;;;2.78;;
23155;SDS011;11746;50.876;4.246;2022-09-02T07:32:13;4.43;;;3.17;;
23155;SDS011;11746;50.876;4.246;2022-09-02T07:34:41;5.80;;;2.97;;
23155;SDS011;11746;50.876;4.246;2022-09-02T07:37:07;5.85;;;2.90;;
23155;SDS011;11746;50.876;4.246;2022-09-02T07:39:34;7.40;;;3.92;;
23155;SDS011;11746;50.876;4.246;2022-09-02T07:42:00;3.42;;;2.92;;
23155;SDS011;11746;50.876;4.246;2022-09-02T07:44:26;6.50;;;2.63;;
23155;SDS011;11746;50.876;4.246;2022-09-02T07:46:53;3.50;;;2.80;;
23155;SDS011;11746;50.876;4.246;2022-09-02T07:49:20;3.08;;;2.60;;
23155;SDS011;11746;50.876;4.246;2022-09-02T07:51:47;6.72;;;2.78;;
23155;SDS011;11746;50.876;4.246;2022-09-02T07:54:16;4.78;;;2.72;;
23155;SDS011;11746;50.876;4.246;2022-09-02T07:56:44;7.10;;;2.63;;
23155;SDS011;11746;50.876;4.246;2022-09-02T07:59:11;2.78;;;2.47;;
23155;SDS011;11746;50.876;4.246;2022-09-02T08:01:37;5.13;;;2.90;;
23155;SDS011;11746;50.876;4.246;2022-09-02T08:04:04;6.28;;;3.60;;
23155;SDS011;11746;50.876;4.246;2022-09-02T08:06:31;4.22;;;2.42;;
23155;SDS011;11746;50.876;4.246;2022-09-02T08:08:58;4.22;;;2.72;;
23155;SDS011;11746;50.876;4.246;2022-09-02T08:11:24;8.55;;;2.80;;
23155;SDS011;11746;50.876;4.246;2022-09-02T08:13:50;6.28;;;2.67;;
23155;SDS011;11746;50.876;4.246;2022-09-02T08:16:16;6.45;;;2.78;;
23155;SDS011;11746;50.876;4.246;2022-09-02T08:18:43;4.80;;;2.75;;
23155;SDS011;11746;50.876;4.246;2022-09-02T08:21:10;7.80;;;3.20;;
23155;SDS011;11746;50.876;4.246;2022-09-02T08:23:36;8.30;;;2.60;;
23155;SDS011;11746;50.876;4.246;2022-09-02T08:26:03;13.35;;;4.05;;
23155;SDS011;11746;50.876;4.246;2022-09-02T08:28:29;4.38;;;2.22;;
23155;SDS011;11746;50.876;4.246;2022-09-02T08:31:02;4.70;;;2.47;;
23155;SDS011;11746;50.876;4.246;2022-09-02T08:33:30;5.20;;;2.55;;
23155;SDS011;11746;50.876;4.246;2022-09-02T08:36:00;4.97;;;2.58;;
23155;SDS011;11746;50.876;4.246;2022-09-02T08:38:30;5.35;;;2.63;;
23155;SDS011;11746;50.876;4.246;2022-09-02T08:40:56;4.72;;;2.90;;
23155;SDS011;11746;50.876;4.246;2022-09-02T08:43:36;3.60;;;2.45;;
23155;SDS011;11746;50.876;4.246;2022-09-02T08:46:05;4.95;;;2.67;;
23155;SDS011;11746;50.876;4.246;2022-09-02T08:49:09;4.22;;;2.53;;
23155;SDS011;11746;50.876;4.246;2022-09-02T08:54:22;8.40;;;2.72;;
23155;SDS011;11746;50.876;4.246;2022-09-02T08:56:51;8.15;;;3.30;;
23155;SDS011;11746;50.876;4.246;2022-09-02T08:59:20;7.63;;;3.53;;
23155;SDS011;11746;50.876;4.246;2022-09-02T09:01:52;7.57;;;3.38;;
23155;SDS011;11746;50.876;4.246;2022-09-02T09:15:28;6.82;;;2.50;;
23155;SDS011;11746;50.876;4.246;2022-09-02T09:20:39;6.97;;;2.30;;
23155;SDS011;11746;50.876;4.246;2022-09-02T09:23:17;9.60;;;3.10;;
23155;SDS011;11746;50.876;4.246;2022-09-02T09:25:56;3.90;;;2.65;;
23155;SDS011;11746;50.876;4.246;2022-09-02T09:28:45;2.35;;;2.03;;
23155;SDS011;11746;50.876;4.246;2022-09-02T09:31:16;3.30;;;2.42;;
23155;SDS011;11746;50.876;4.246;2022-09-02T09:39:48;5.45;;;2.40;;
23155;SDS011;11746;50.876;4.246;2022-09-02T09:41:58;7.93;;;2.53;;
23155;SDS011;11746;50.876;4.246;2022-09-02T09:44:37;4.07;;;2.85;;
23155;SDS011;11746;50.876;4.246;2022-09-02T09:47:18;2.90;;;2.50;;
23155;SDS011;11746;50.876;4.246;2022-09-02T09:49:50;5.43;;;2.47;;
23155;SDS011;11746;50.876;4.246;2022-09-02T09:52:26;3.90;;;2.50;;
23155;SDS011;11746;50.876;4.246;2022-09-02T09:55:07;7.90;;;2.92;;
23155;SDS011;11746;50.876;4.246;2022-09-02T09:57:40;7.03;;;2.80;;
23155;SDS011;11746;50.876;4.246;2022-09-02T10:02:57;4.45;;;2.53;;
23155;SDS011;11746;50.876;4.246;2022-09-02T10:08:18;5.65;;;2.60;;
23155;SDS011;11746;50.876;4.246;2022-09-02T10:10:59;5.68;;;2.58;;
23155;SDS011;11746;50.876;4.246;2022-09-02T10:13:34;3.28;;;2.42;;
23155;SDS011;11746;50.876;4.246;2022-09-02T10:16:17;6.35;;;2.65;;
23155;SDS011;11746;50.876;4.246;2022-09-02T10:24:35;4.57;;;2.20;;
23155;SDS011;11746;50.876;4.246;2022-09-02T10:27:46;4.15;;;2.20;;
23155;SDS011;11746;50.876;4.246;2022-09-02T10:30:28;4.25;;;2.55;;
23155;SDS011;11746;50.876;4.246;2022-09-02T10:38:26;5.97;;;2.17;;
23155;SDS011;11746;50.876;4.246;2022-09-02T10:41:01;4.07;;;2.13;;
23155;SDS011;11746;50.876;4.246;2022-09-02T10:44:25;6.40;;;2.50;;
23155;SDS011;11746;50.876;4.246;2022-09-02T10:46:38;15.48;;;2.72;;
23155;SDS011;11746;50.876;4.246;2022-09-02T10:49:21;3.92;;;2.10;;
23155;SDS011;11746;50.876;4.246;2022-09-02T10:55:34;4.40;;;2.10;;
23155;SDS011;11746;50.876;4.246;2022-09-02T10:58:13;3.65;;;1.95;;
23155;SDS011;11746;50.876;4.246;2022-09-02T11:00:47;5.80;;;2.85;;
23155;SDS011;11746;50.876;4.246;2022-09-02T11:06:08;8.93;;;2.53;;
23155;SDS011;11746;50.876;4.246;2022-09-02T11:08:46;6.20;;;2.40;;
23155;SDS011;11746;50.876;4.246;2022-09-02T11:11:20;4.30;;;2.85;;
23155;SDS011;11746;50.876;4.246;2022-09-02T11:16:56;9.43;;;4.13;;
23155;SDS011;11746;50.876;4.246;2022-09-02T11:19:32;9.68;;;3.08;;
23155;SDS011;11746;50.876;4.246;2022-09-02T11:25:02;5.63;;;2.53;;
23155;SDS011;11746;50.876;4.246;2022-09-02T11:27:42;6.47;;;2.47;;
23155;SDS011;11746;50.876;4.246;2022-09-02T11:30:25;5.75;;;2.15;;
23155;SDS011;11746;50.876;4.246;2022-09-02T11:33:02;3.20;;;2.38;;
23155;SDS011;11746;50.876;4.246;2022-09-02T11:35:42;7.57;;;2.22;;
23155;SDS011;11746;50.876;4.246;2022-09-02T11:38:26;4.03;;;2.10;;
23155;SDS011;11746;50.876;4.246;2022-09-02T11:49:31;4.50;;;2.30;;
23155;SDS011;11746;50.876;4.246;2022-09-02T11:52:07;5.13;;;2.80;;
23155;SDS011;11746;50.876;4.246;2022-09-02T11:55:04;5.07;;;2.20;;
23155;SDS011;11746;50.876;4.246;2022-09-02T11:57:40;5.03;;;3.03;;
23155;SDS011;11746;50.876;4.246;2022-09-02T12:00:23;3.65;;;2.30;;
23155;SDS011;11746;50.876;4.246;2022-09-02T12:07:59;6.53;;;2.20;;
23155;SDS011;11746;50.876;4.246;2022-09-02T12:21:25;6.90;;;2.30;;
23155;SDS011;11746;50.876;4.246;2022-09-02T12:26:27;3.80;;;1.90;;
23155;SDS011;11746;50.876;4.246;2022-09-02T12:31:50;5.85;;;1.98;;
23155;SDS011;11746;50.876;4.246;2022-09-02T12:36:56;4.30;;;1.80;;
23155;SDS011;11746;50.876;4.246;2022-09-02T12:53:07;2.60;;;2.10;;
23155;SDS011;11746;50.876;4.246;2022-09-02T12:55:54;3.22;;;1.58;;
23155;SDS011;11746;50.876;4.246;2022-09-02T12:58:22;71.75;;;7.85;;
23155;SDS011;11746;50.876;4.246;2022-09-02T13:01:07;2.45;;;2.00;;
23155;SDS011;11746;50.876;4.246;2022-09-02T13:21:20;15.80;;;3.63;;
23155;SDS011;11746;50.876;4.246;2022-09-02T13:30:09;16.40;;;3.08;;
23155;SDS011;11746;50.876;4.246;2022-09-02T13:35:16;2.47;;;1.90;;
23155;SDS011;11746;50.876;4.246;2022-09-02T13:37:55;3.75;;;2.00;;
23155;SDS011;11746;50.876;4.246;2022-09-02T13:40:27;6.68;;;1.92;;
23155;SDS011;11746;50.876;4.246;2022-09-02T13:45:25;2.10;;;1.90;;
23155;SDS011;11746;50.876;4.246;2022-09-02T13:48:01;3.67;;;1.92;;
23155;SDS011;11746;50.876;4.246;2022-09-02T13:50:54;2.60;;;2.10;;
23155;SDS011;11746;50.876;4.246;2022-09-02T13:56:05;4.43;;;2.10;;
23155;SDS011;11746;50.876;4.246;2022-09-02T13:58:50;3.08;;;1.63;;
23155;SDS011;11746;50.876;4.246;2022-09-02T14:01:22;10.55;;;1.80;;
23155;SDS011;11746;50.876;4.246;2022-09-02T14:03:53;2.95;;;1.67;;
23155;SDS011;11746;50.876;4.246;2022-09-02T14:06:24;2.10;;;1.75;;
23155;SDS011;11746;50.876;4.246;2022-09-02T14:09:01;5.45;;;1.60;;
23155;SDS011;11746;50.876;4.246;2022-09-02T14:11:40;3.22;;;1.73;;
23155;SDS011;11746;50.876;4.246;2022-09-02T14:14:13;3.70;;;1.58;;
23155;SDS011;11746;50.876;4.246;2022-09-02T14:16:40;1.77;;;1.67;;
23155;SDS011;11746;50.876;4.246;2022-09-02T14:19:07;2.63;;;1.90;;
23155;SDS011;11746;50.876;4.246;2022-09-02T14:21:43;2.05;;;1.80;;
23155;SDS011;11746;50.876;4.246;2022-09-02T14:24:12;2.92;;;2.15;;
23155;SDS011;11746;50.876;4.246;2022-09-02T14:26:41;10.88;;;2.60;;
23155;SDS011;11746;50.876;4.246;2022-09-02T14:29:13;2.45;;;1.80;;
23155;SDS011;11746;50.876;4.246;2022-09-02T14:31:42;2.15;;;1.70;;
23155;SDS011;11746;50.876;4.246;2022-09-02T14:40:01;4.60;;;1.83;;
23155;SDS011;11746;50.876;4.246;2022-09-02T14:42:33;3.88;;;1.50;;
23155;SDS011;11746;50.876;4.246;2022-09-02T14:45:12;1.52;;;1.33;;
23155;SDS011;11746;50.876;4.246;2022-09-02T14:47:39;2.47;;;1.80;;
23155;SDS011;11746;50.876;4.246;2022-09-02T14:50:10;3.47;;;1.55;;
23155;SDS011;11746;50.876;4.246;2022-09-02T14:52:45;1.70;;;1.60;;
23155;SDS011;11746;50.876;4.246;2022-09-02T14:58:07;2.17;;;1.70;;
23155;SDS011;11746;50.876;4.246;2022-09-02T15:00:33;1.48;;;1.38;;
23155;SDS011;11746;50.876;4.246;2022-09-02T15:03:03;2.17;;;1.40;;
23155;SDS011;11746;50.876;4.246;2022-09-02T15:05:31;3.17;;;1.55;;
23155;SDS011;11746;50.876;4.246;2022-09-02T15:07:57;2.40;;;1.52;;
23155;SDS011;11746;50.876;4.246;2022-09-02T15:10:23;1.38;;;1.27;;
23155;SDS011;11746;50.876;4.246;2022-09-02T15:12:52;2.88;;;1.70;;
23155;SDS011;11746;50.876;4.246;2022-09-02T15:15:20;4.93;;;1.60;;
23155;SDS011;11746;50.876;4.246;2022-09-02T15:17:46;3.60;;;1.48;;
23155;SDS011;11746;50.876;4.246;2022-09-02T15:20:12;1.60;;;1.50;;
23155;SDS011;11746;50.876;4.246;2022-09-02T15:22:38;4.10;;;1.88;;
23155;SDS011;11746;50.876;4.246;2022-09-02T15:25:07;4.50;;;2.00;;
23155;SDS011;11746;50.876;4.246;2022-09-02T15:27:34;2.13;;;1.58;;
23155;SDS011;11746;50.876;4.246;2022-09-02T15:30:01;4.40;;;2.90;;
23155;SDS011;11746;50.876;4.246;2022-09-02T15:32:27;3.83;;;3.10;;
23155;SDS011;11746;50.876;4.246;2022-09-02T15:34:53;2.65;;;1.50;;
23155;SDS011;11746;50.876;4.246;2022-09-02T15:37:19;2.90;;;1.60;;
23155;SDS011;11746;50.876;4.246;2022-09-02T15:39:45;4.28;;;1.88;;
23155;SDS011;11746;50.876;4.246;2022-09-02T15:42:13;2.75;;;1.52;;
23155;SDS011;11746;50.876;4.246;2022-09-02T15:44:42;1.50;;;1.30;;
23155;SDS011;11746;50.876;4.246;2022-09-02T15:47:09;2.15;;;1.33;;
23155;SDS011;11746;50.876;4.246;2022-09-02T15:49:35;2.13;;;1.55;;
23155;SDS011;11746;50.876;4.246;2022-09-02T15:52:01;3.05;;;1.60;;
23155;SDS011;11746;50.876;4.246;2022-09-02T15:54:27;4.50;;;1.40;;
23155;SDS011;11746;50.876;4.246;2022-09-02T15:56:56;1.48;;;1.25;;
23155;SDS011;11746;50.876;4.246;2022-09-02T15:59:23;2.03;;;1.60;;
23155;SDS011;11746;50.876;4.246;2022-09-02T16:01:51;1.55;;;1.20;;
23155;SDS011;11746;50.876;4.246;2022-09-02T16:04:20;2.55;;;1.23;;
23155;SDS011;11746;50.876;4.246;2022-09-02T16:06:47;3.50;;;1.40;;
23155;SDS011;11746;50.876;4.246;2022-09-02T16:09:16;1.60;;;1.27;;
23155;SDS011;11746;50.876;4.246;2022-09-02T16:11:44;2.60;;;1.23;;
23155;SDS011;11746;50.876;4.246;2022-09-02T16:14:12;3.03;;;1.42;;
23155;SDS011;11746;50.876;4.246;2022-09-02T16:16:39;3.30;;;1.13;;
23155;SDS011;11746;50.876;4.246;2022-09-02T16:19:06;3.38;;;1.42;;
23155;SDS011;11746;50.876;4.246;2022-09-02T16:21:33;2.13;;;1.52;;
23155;SDS011;11746;50.876;4.246;2022-09-02T16:23:59;2.88;;;1.35;;
23155;SDS011;11746;50.876;4.246;2022-09-02T16:26:28;2.70;;;1.17;;
23155;SDS011;11746;50.876;4.246;2022-09-02T16:28:57;2.53;;;1.23;;
23155;SDS011;11746;50.876;4.246;2022-09-02T16:31:25;3.35;;;1.35;;
23155;SDS011;11746;50.876;4.246;2022-09-02T16:34:03;3.67;;;1.58;;
23155;SDS011;11746;50.876;4.246;2022-09-02T16:36:34;1.77;;;1.15;;
23155;SDS011;11746;50.876;4.246;2022-09-02T16:39:03;4.70;;;1.15;;
23155;SDS011;11746;50.876;4.246;2022-09-02T16:41:32;3.28;;;1.55;;
23155;SDS011;11746;50.876;4.246;2022-09-02T16:44:06;1.48;;;1.20;;
23155;SDS011;11746;50.876;4.246;2022-09-02T16:46:35;5.88;;;1.50;;
23155;SDS011;11746;50.876;4.246;2022-09-02T16:49:04;3.92;;;1.50;;
23155;SDS011;11746;50.876;4.246;2022-09-02T16:51:31;2.58;;;1.27;;
23155;SDS011;11746;50.876;4.246;2022-09-02T16:53:58;2.30;;;1.13;;
23155;SDS011;11746;50.876;4.246;2022-09-02T16:56:25;4.18;;;1.60;;
23155;SDS011;11746;50.876;4.246;2022-09-02T16:58:52;1.30;;;1.10;;
23155;SDS011;11746;50.876;4.246;2022-09-02T17:01:20;4.00;;;1.42;;
23155;SDS011;11746;50.876;4.246;2022-09-02T17:03:47;5.97;;;1.33;;
23155;SDS011;11746;50.876;4.246;2022-09-02T17:06:14;4.10;;;1.58;;
23155;SDS011;11746;50.876;4.246;2022-09-02T17:08:41;2.28;;;1.30;;
23155;SDS011;11746;50.876;4.246;2022-09-02T17:11:27;3.17;;;1.60;;
23155;SDS011;11746;50.876;4.246;2022-09-02T17:14:02;4.13;;;1.55;;
23155;SDS011;11746;50.876;4.246;2022-09-02T17:16:40;8.15;;;2.00;;
23155;SDS011;11746;50.876;4.246;2022-09-02T17:19:07;3.65;;;2.33;;
23155;SDS011;11746;50.876;4.246;2022-09-02T17:24:07;9.57;;;5.18;;